Avoca, Illinois
Current Conditions -  °F | °C
As of 9:15 AM on Thursday 18 Dec 2014 (Local Time) from KPNT Reporting Station
Scattered Clouds Scattered Clouds  
Wind Chill: -5°   Ceiling: Unl
Heat Index: -5°   Visibility: 10mi
Dew Point: -7°   Wind: 0mph
Humidity: 90%   Direction: NA
Pressure: 30.32"   Gusts: NA
Location:  40.7318°N, 88.524°W
Report Text: KPNT 181515Z AUTO 00000KT 10SM SCT120 M05/M07 A3032 RMK AO2 T10521066
Loading
Personal Weather Stations






























Interactive Weather Map New forecast layout! Learn more

10-Day Weather Forecast

Advertisements
Track Severe Weather on mobile